createdAt,value
2023-01-13T00:00:51.583Z,28.60
2023-01-13T00:03:18.319Z,22.33
2023-01-13T00:05:45.089Z,24.50
2023-01-13T00:08:11.847Z,20.67
2023-01-13T00:10:38.660Z,18.60
2023-01-13T00:13:05.603Z,24.43
2023-01-13T00:15:32.869Z,21.53
2023-01-13T00:17:59.708Z,21.33
2023-01-13T00:20:26.458Z,22.20
2023-01-13T00:22:53.211Z,15.97
2023-01-13T00:25:19.940Z,22.73
2023-01-13T00:27:46.661Z,20.73
2023-01-13T00:30:13.748Z,18.90
2023-01-13T00:32:40.518Z,17.63
2023-01-13T00:35:07.733Z,18.43
2023-01-13T00:37:38.135Z,16.33
2023-01-13T00:40:05.505Z,19.48
2023-01-13T00:42:50.840Z,16.03
2023-01-13T00:45:17.657Z,20.40
2023-01-13T00:47:44.605Z,20.77
2023-01-13T00:50:11.412Z,17.87
2023-01-13T00:52:38.317Z,16.60
2023-01-13T00:55:06.103Z,15.60
2023-01-13T00:57:32.852Z,15.23
2023-01-13T00:59:59.589Z,15.30
2023-01-13T01:02:26.384Z,20.10
2023-01-13T01:04:53.230Z,22.40
2023-01-13T01:07:19.978Z,16.83
2023-01-13T01:09:46.685Z,18.87
2023-01-13T01:12:14.255Z,17.50
2023-01-13T01:14:40.989Z,16.93
2023-01-13T01:17:07.770Z,16.37
2023-01-13T01:19:37.401Z,18.57
2023-01-13T01:22:04.205Z,17.43
2023-01-13T01:24:30.982Z,21.40
2023-01-13T01:26:57.739Z,23.30
2023-01-13T01:29:24.514Z,20.80
2023-01-13T01:31:51.271Z,20.33
2023-01-13T01:34:17.994Z,19.33
2023-01-13T01:36:44.736Z,18.23
2023-01-13T01:39:11.496Z,19.40
2023-01-13T01:41:38.273Z,21.83
2023-01-13T01:44:26.491Z,23.27
2023-01-13T01:46:53.349Z,21.83
2023-01-13T01:49:23.105Z,24.53
2023-01-13T01:52:08.566Z,26.77
2023-01-13T01:54:42.865Z,30.67
2023-01-13T01:57:10.711Z,24.47
2023-01-13T01:59:37.463Z,16.60
2023-01-13T02:02:04.295Z,20.00
2023-01-13T02:04:33.891Z,21.90
2023-01-13T02:07:01.542Z,25.30
2023-01-13T02:09:28.334Z,37.50
2023-01-13T02:12:13.396Z,47.43
2023-01-13T02:14:40.190Z,61.90
2023-01-13T02:17:23.464Z,73.30
2023-01-13T02:20:08.505Z,70.87
2023-01-13T02:22:57.489Z,69.27
2023-01-13T02:25:42.622Z,74.40
2023-01-13T02:29:01.813Z,76.07
2023-01-13T02:31:43.746Z,69.17
2023-01-13T02:34:17.296Z,72.10
2023-01-13T02:36:52.085Z,70.23
2023-01-13T02:39:33.428Z,68.57
2023-01-13T02:42:21.714Z,69.87
2023-01-13T02:44:51.386Z,67.87
2023-01-13T02:47:21.567Z,64.20
2023-01-13T02:49:54.945Z,72.68
2023-01-13T02:52:40.525Z,65.20
2023-01-13T02:55:15.943Z,65.70
2023-01-13T02:57:42.841Z,61.30
2023-01-13T03:00:10.514Z,64.03
2023-01-13T03:02:38.675Z,43.17
2023-01-13T03:05:05.784Z,47.33
2023-01-13T03:08:11.553Z,37.23
2023-01-13T03:10:51.671Z,28.97
2023-01-13T03:13:21.453Z,34.63
2023-01-13T03:16:07.936Z,38.33
2023-01-13T03:18:37.679Z,39.37
2023-01-13T03:21:24.720Z,37.13
2023-01-13T03:24:26.484Z,42.70
2023-01-13T03:27:03.718Z,44.13
2023-01-13T03:29:42.512Z,44.57
2023-01-13T03:32:28.885Z,45.40
2023-01-13T03:35:01.942Z,50.33
2023-01-13T03:37:35.400Z,47.00
2023-01-13T03:40:14.345Z,52.97
2023-01-13T03:42:41.981Z,51.77
2023-01-13T03:45:16.024Z,51.20
2023-01-13T03:47:47.852Z,62.43
2023-01-13T03:50:53.914Z,52.30
2023-01-13T03:53:28.201Z,60.70
2023-01-13T03:56:02.202Z,55.57
2023-01-13T03:58:37.884Z,50.90
2023-01-13T04:01:17.468Z,54.83
2023-01-13T04:04:07.160Z,51.23
2023-01-13T04:06:51.646Z,57.27
2023-01-13T04:09:18.414Z,42.83
2023-01-13T04:11:49.558Z,48.50
2023-01-13T04:14:16.391Z,47.03
2023-01-13T04:16:43.212Z,60.70
2023-01-13T04:19:10.046Z,71.47
2023-01-13T04:21:36.863Z,66.23
2023-01-13T04:24:03.716Z,63.37
2023-01-13T04:26:30.491Z,47.00
2023-01-13T04:28:57.238Z,52.83
2023-01-13T04:31:24.274Z,51.57
2023-01-13T04:33:51.125Z,54.87
2023-01-13T04:36:19.618Z,58.97
2023-01-13T04:38:46.436Z,66.27
2023-01-13T04:41:13.294Z,69.03
2023-01-13T04:43:40.068Z,61.93
2023-01-13T04:46:06.813Z,67.73
2023-01-13T04:48:33.585Z,78.70
2023-01-13T04:51:00.451Z,80.93
2023-01-13T04:53:27.198Z,71.67
2023-01-13T04:55:54.006Z,80.10
2023-01-13T04:58:21.138Z,82.07
2023-01-13T05:00:48.018Z,82.33
2023-01-13T05:03:14.837Z,80.33
2023-01-13T05:05:41.582Z,91.20
2023-01-13T05:08:09.175Z,83.43
2023-01-13T05:10:35.911Z,85.57
2023-01-13T05:13:21.241Z,82.17
2023-01-13T05:16:23.509Z,74.70
2023-01-13T05:18:50.255Z,71.63
2023-01-13T05:21:35.772Z,71.43
2023-01-13T05:24:21.182Z,82.13
2023-01-13T05:26:47.994Z,67.43
2023-01-13T05:29:14.793Z,80.90
2023-01-13T05:31:41.575Z,80.97
2023-01-13T05:34:08.388Z,67.70
2023-01-13T05:36:35.132Z,62.03
2023-01-13T05:39:02.269Z,64.93
2023-01-13T05:41:47.703Z,56.27
2023-01-13T05:44:14.488Z,65.43
2023-01-13T05:46:41.970Z,73.07
2023-01-13T05:49:08.850Z,73.27
2023-01-13T05:51:35.682Z,66.73
2023-01-13T05:54:02.522Z,72.53
2023-01-13T05:56:29.315Z,70.27
2023-01-13T05:58:56.037Z,70.67
2023-01-13T06:01:22.972Z,71.27
2023-01-13T06:03:49.776Z,72.93
2023-01-13T06:06:16.593Z,68.33
2023-01-13T06:08:43.411Z,74.30
2023-01-13T06:11:10.173Z,70.57
2023-01-13T06:13:37.074Z,75.07
2023-01-13T06:16:04.060Z,68.77
2023-01-13T06:18:30.890Z,84.20
2023-01-13T06:20:57.696Z,82.03
2023-01-13T06:23:24.622Z,68.70
2023-01-13T06:26:14.554Z,55.57
2023-01-13T06:28:41.440Z,71.07
2023-01-13T06:31:08.357Z,67.70
2023-01-13T06:33:41.115Z,64.40
2023-01-13T06:36:12.238Z,68.37
2023-01-13T06:38:40.865Z,80.93
2023-01-13T06:41:07.635Z,73.27
2023-01-13T06:43:35.038Z,86.13
2023-01-13T06:46:02.376Z,71.73
2023-01-13T06:48:33.056Z,68.73
2023-01-13T06:51:00.150Z,72.20
2023-01-13T06:53:26.964Z,68.60
2023-01-13T06:55:53.742Z,67.03
2023-01-13T06:58:20.525Z,66.20
2023-01-13T07:00:51.432Z,68.67
2023-01-13T07:03:18.712Z,64.43
2023-01-13T07:05:52.612Z,74.33
2023-01-13T07:08:19.502Z,67.40
2023-01-13T07:10:46.261Z,54.07
2023-01-13T07:13:31.570Z,51.43
2023-01-13T07:15:59.845Z,54.73
2023-01-13T07:18:27.839Z,63.43
2023-01-13T07:20:55.693Z,67.47
2023-01-13T07:23:22.579Z,80.00
2023-01-13T07:25:50.389Z,81.30
2023-01-13T07:28:17.450Z,86.90
2023-01-13T07:30:44.565Z,90.00
2023-01-13T07:33:11.442Z,83.70
2023-01-13T07:35:38.228Z,76.30
2023-01-13T07:38:05.075Z,76.43
2023-01-13T07:40:31.890Z,73.20
2023-01-13T07:43:17.383Z,70.80
2023-01-13T07:45:44.195Z,70.47
2023-01-13T07:48:11.001Z,65.45
2023-01-13T07:50:37.859Z,73.95
2023-01-13T07:53:04.863Z,75.78
2023-01-13T07:55:31.660Z,73.80
2023-01-13T07:57:58.391Z,77.00
2023-01-13T08:00:25.219Z,71.47
2023-01-13T08:02:52.260Z,74.45
2023-01-13T08:05:19.041Z,76.03
2023-01-13T08:07:45.865Z,77.80
2023-01-13T08:10:12.668Z,79.60
2023-01-13T08:12:58.263Z,92.40
2023-01-13T08:15:25.085Z,88.40
2023-01-13T08:17:51.930Z,82.63
2023-01-13T08:20:19.313Z,89.03
2023-01-13T08:22:46.186Z,82.45
2023-01-13T08:25:13.106Z,81.88
2023-01-13T08:27:40.086Z,86.68
2023-01-13T08:30:07.579Z,95.88
2023-01-13T08:32:34.530Z,93.30
2023-01-13T08:35:01.317Z,78.00
2023-01-13T08:37:28.173Z,99.03
2023-01-13T08:39:55.045Z,75.43
2023-01-13T08:42:21.825Z,79.00
2023-01-13T08:44:48.622Z,83.32
2023-01-13T08:47:15.388Z,90.18
2023-01-13T08:49:42.338Z,93.03
2023-01-13T08:52:09.156Z,99.25
2023-01-13T08:54:37.430Z,91.88
2023-01-13T08:57:04.345Z,105.82
2023-01-13T08:59:31.390Z,105.40
2023-01-13T09:01:58.301Z,134.13
2023-01-13T09:04:27.755Z,178.07
2023-01-13T09:06:54.982Z,132.82
2023-01-13T09:09:22.326Z,109.88
2023-01-13T09:12:08.653Z,102.80
2023-01-13T09:14:36.645Z,123.28
2023-01-13T09:17:03.621Z,152.30
2023-01-13T09:19:30.477Z,117.32
2023-01-13T09:21:57.456Z,136.63
2023-01-13T09:24:24.605Z,136.90
2023-01-13T09:26:51.625Z,119.63
2023-01-13T09:29:18.628Z,153.30
2023-01-13T09:31:45.561Z,117.82
2023-01-13T09:34:35.444Z,143.63
2023-01-13T09:37:02.459Z,98.70
2023-01-13T09:39:29.347Z,123.78
2023-01-13T09:42:17.711Z,96.72
2023-01-13T09:45:07.552Z,97.18
2023-01-13T09:47:56.761Z,92.32
2023-01-13T09:50:31.270Z,83.70
2023-01-13T09:52:58.055Z,76.38
2023-01-13T09:55:36.583Z,73.40
2023-01-13T09:58:09.838Z,60.83
2023-01-13T10:00:39.277Z,42.78
2023-01-13T10:03:22.814Z,62.85
2023-01-13T10:05:58.572Z,32.80
2023-01-13T10:08:29.935Z,42.58
2023-01-13T10:11:00.352Z,26.13
2023-01-13T10:13:28.215Z,39.50
2023-01-13T10:16:24.225Z,34.95
2023-01-13T10:18:58.096Z,26.00
2023-01-13T10:21:44.951Z,27.20
2023-01-13T10:24:39.309Z,28.42
2023-01-13T10:27:12.457Z,32.55
2023-01-13T10:29:40.283Z,39.20
2023-01-13T10:32:07.150Z,39.85
2023-01-13T10:34:44.887Z,39.97
2023-01-13T10:37:11.647Z,30.65
2023-01-13T10:39:45.531Z,19.58
2023-01-13T10:42:21.811Z,24.58
2023-01-13T10:44:52.235Z,26.05
2023-01-13T10:47:32.885Z,27.17
2023-01-13T10:50:08.680Z,18.02
2023-01-13T10:52:39.430Z,18.20
2023-01-13T10:55:30.498Z,20.92
2023-01-13T11:00:31.903Z,21.77
2023-01-13T11:03:17.639Z,26.65
2023-01-13T11:05:57.732Z,20.40
2023-01-13T11:08:45.513Z,18.48
2023-01-13T11:11:39.224Z,21.05
2023-01-13T11:14:33.111Z,20.13
2023-01-13T11:17:40.425Z,21.05
2023-01-13T11:20:19.774Z,28.55
2023-01-13T11:22:47.266Z,21.50
2023-01-13T11:25:32.687Z,24.98
2023-01-13T11:28:33.553Z,23.88
2023-01-13T11:31:53.118Z,27.88
2023-01-13T11:34:32.504Z,42.25
2023-01-13T11:37:00.507Z,39.22
2023-01-13T11:39:36.155Z,30.65
2023-01-13T11:42:24.371Z,13.68
2023-01-13T11:45:12.777Z,12.88
2023-01-13T11:47:39.573Z,15.02
2023-01-13T11:50:28.197Z,16.00
2023-01-13T11:53:04.302Z,24.77
2023-01-13T11:56:11.572Z,19.95
2023-01-13T11:58:50.567Z,22.80
2023-01-13T12:02:02.963Z,16.35
2023-01-13T12:04:51.611Z,17.73
2023-01-13T12:07:24.328Z,43.38
2023-01-13T12:10:03.908Z,51.85
2023-01-13T12:12:40.392Z,20.70
2023-01-13T12:15:22.651Z,18.35
2023-01-13T12:17:55.194Z,16.63
2023-01-13T12:20:54.008Z,13.18
2023-01-13T12:23:31.164Z,15.40
2023-01-13T12:26:11.719Z,17.33
2023-01-13T12:28:46.905Z,13.50
2023-01-13T12:31:13.720Z,17.23
2023-01-13T12:34:01.746Z,18.83
2023-01-13T12:36:58.932Z,19.77
2023-01-13T12:39:49.447Z,19.52
2023-01-13T12:42:45.660Z,18.80
2023-01-13T12:45:12.532Z,13.57
2023-01-13T12:47:43.528Z,14.70
2023-01-13T12:50:22.436Z,15.90
2023-01-13T12:52:49.826Z,16.65
2023-01-13T12:55:25.468Z,16.98
2023-01-13T12:58:19.213Z,17.40
2023-01-13T13:00:45.953Z,19.73
2023-01-13T13:03:12.756Z,20.88
2023-01-13T13:05:48.823Z,61.33
2023-01-13T13:08:20.209Z,81.63
2023-01-13T13:10:55.564Z,92.47
2023-01-13T13:13:46.777Z,76.25
2023-01-13T13:16:26.048Z,102.40
2023-01-13T13:18:53.653Z,98.78
2023-01-13T13:21:20.458Z,82.82
2023-01-13T13:23:53.540Z,71.45
2023-01-13T13:26:31.761Z,72.05
2023-01-13T13:29:23.254Z,66.90
2023-01-13T13:31:58.865Z,100.28
2023-01-13T13:34:37.859Z,84.43
2023-01-13T13:37:55.227Z,82.32
2023-01-13T13:40:40.887Z,76.85
2023-01-13T13:43:29.403Z,94.13
2023-01-13T13:46:14.730Z,99.43
2023-01-13T13:48:53.816Z,84.88
2023-01-13T13:51:32.180Z,86.18
2023-01-13T13:53:59.420Z,91.25
2023-01-13T13:56:29.486Z,95.75
2023-01-13T13:58:56.372Z,78.70
2023-01-13T14:01:32.918Z,82.80
2023-01-13T14:04:19.894Z,80.55
2023-01-13T14:07:00.502Z,122.97
2023-01-13T14:09:29.204Z,95.38
2023-01-13T14:12:03.298Z,96.75
2023-01-13T14:14:30.145Z,110.00
2023-01-13T14:16:56.961Z,115.90
2023-01-13T14:19:35.737Z,104.13
2023-01-13T14:22:03.555Z,113.40
2023-01-13T14:24:30.737Z,99.07
2023-01-13T14:27:11.182Z,95.88
2023-01-13T14:29:37.941Z,98.00
2023-01-13T14:32:04.928Z,88.32
2023-01-13T14:34:33.332Z,83.78
2023-01-13T14:37:01.217Z,86.00
2023-01-13T14:39:38.068Z,83.78
2023-01-13T14:42:10.352Z,77.45
2023-01-13T14:44:37.132Z,79.38
2023-01-13T14:47:17.400Z,90.63
2023-01-13T14:50:16.149Z,87.72
2023-01-13T14:52:51.076Z,85.07
2023-01-13T14:55:36.355Z,67.65
2023-01-13T14:58:22.070Z,68.32
2023-01-13T15:00:49.749Z,64.03
2023-01-13T15:03:18.181Z,56.80
2023-01-13T15:05:49.541Z,65.82
2023-01-13T15:08:17.273Z,65.43
2023-01-13T15:11:00.267Z,69.90
2023-01-13T15:13:31.988Z,69.57
2023-01-13T15:16:00.379Z,81.93
2023-01-13T15:18:27.326Z,55.55
2023-01-13T15:20:54.139Z,73.60
2023-01-13T15:23:21.032Z,75.47
2023-01-13T15:25:47.982Z,67.20
2023-01-13T15:28:19.203Z,54.45
2023-01-13T15:30:46.434Z,66.85
2023-01-13T15:33:13.681Z,63.22
2023-01-13T15:35:42.984Z,56.20
2023-01-13T15:38:14.726Z,58.63
2023-01-13T15:40:41.804Z,92.20
2023-01-13T15:43:31.896Z,79.03
2023-01-13T15:46:17.337Z,74.10
2023-01-13T15:48:44.254Z,72.63
2023-01-13T15:51:12.020Z,75.65
2023-01-13T15:53:39.736Z,65.45
2023-01-13T15:56:11.416Z,59.83
2023-01-13T15:58:38.188Z,67.38
2023-01-13T16:01:05.076Z,65.15
2023-01-13T16:03:31.884Z,72.15
2023-01-13T16:05:58.633Z,86.00
2023-01-13T16:08:25.435Z,92.18
2023-01-13T16:10:52.187Z,162.25
2023-01-13T16:13:19.018Z,156.32
2023-01-13T16:15:49.545Z,139.43
2023-01-13T16:18:18.658Z,139.98
2023-01-13T16:20:45.582Z,168.77
2023-01-13T16:23:12.740Z,161.32
2023-01-13T16:25:40.218Z,182.32
2023-01-13T16:28:07.064Z,227.77
2023-01-13T16:30:35.718Z,235.60
2023-01-13T16:33:03.063Z,229.00
2023-01-13T16:35:32.034Z,215.25
2023-01-13T16:37:59.803Z,205.50
2023-01-13T16:40:32.393Z,218.88
2023-01-13T16:43:00.992Z,204.02
2023-01-13T16:45:27.889Z,193.55
2023-01-13T16:47:54.835Z,219.40
2023-01-13T16:50:40.942Z,224.15
2023-01-13T16:53:11.642Z,210.93
2023-01-13T16:55:39.143Z,202.98
2023-01-13T16:58:06.173Z,214.05
2023-01-13T17:00:33.091Z,220.02
2023-01-13T17:03:01.947Z,205.40
2023-01-13T17:05:28.812Z,214.43
2023-01-13T17:07:57.089Z,199.68
2023-01-13T17:10:25.164Z,204.30
2023-01-13T17:12:51.968Z,192.80
2023-01-13T17:15:19.185Z,172.23
2023-01-13T17:17:52.022Z,148.88
2023-01-13T17:20:18.936Z,135.77
2023-01-13T17:22:49.694Z,141.43
2023-01-13T17:25:21.639Z,158.75
2023-01-13T17:27:48.474Z,200.50
2023-01-13T17:30:15.338Z,210.32
2023-01-13T17:32:42.084Z,154.23
2023-01-13T17:35:09.353Z,162.52
2023-01-13T17:37:36.104Z,127.63
2023-01-13T17:40:02.856Z,153.85
2023-01-13T17:42:29.765Z,132.93
2023-01-13T17:44:56.547Z,162.05
2023-01-13T17:47:23.534Z,149.15
2023-01-13T17:49:50.423Z,171.00
2023-01-13T17:52:17.379Z,135.88
2023-01-13T17:54:44.295Z,127.30
2023-01-13T17:57:11.092Z,130.05
2023-01-13T17:59:37.999Z,124.65
2023-01-13T18:02:05.113Z,132.13
2023-01-13T18:04:31.994Z,128.73
2023-01-13T18:06:58.823Z,103.63
2023-01-13T18:09:26.336Z,93.35
2023-01-13T18:11:53.239Z,87.80
2023-01-13T18:14:22.519Z,111.68
2023-01-13T18:16:49.566Z,86.15
2023-01-13T18:19:39.337Z,78.55
2023-01-13T18:22:24.839Z,81.32
2023-01-13T18:25:10.394Z,90.15
2023-01-13T18:27:39.018Z,95.55
2023-01-13T18:30:06.710Z,84.00
2023-01-13T18:32:33.775Z,83.97
2023-01-13T18:35:06.202Z,76.82
2023-01-13T18:37:35.926Z,95.45
2023-01-13T18:40:03.551Z,94.15
2023-01-13T18:42:49.049Z,138.52
2023-01-13T18:45:15.868Z,123.90
2023-01-13T18:47:42.718Z,127.90
2023-01-13T18:50:12.323Z,144.27
2023-01-13T18:52:39.264Z,151.52
2023-01-13T18:55:06.236Z,131.90
2023-01-13T18:57:34.406Z,118.15
2023-01-13T19:00:02.452Z,128.13
2023-01-13T19:02:30.122Z,154.90
2023-01-13T19:04:57.340Z,145.70
2023-01-13T19:07:28.338Z,172.40
2023-01-13T19:12:31.472Z,162.95
2023-01-13T19:14:58.522Z,176.60
2023-01-13T19:17:26.400Z,174.77
2023-01-13T19:19:54.749Z,193.27
2023-01-13T19:22:23.386Z,177.50
2023-01-13T19:24:50.696Z,192.98
2023-01-13T19:27:18.066Z,350.30
2023-01-13T19:29:47.353Z,253.25
2023-01-13T19:32:22.540Z,222.05
2023-01-13T19:34:51.018Z,198.77
2023-01-13T19:37:18.156Z,195.18
2023-01-13T19:39:44.996Z,203.00
2023-01-13T19:42:31.042Z,196.10
2023-01-13T19:45:16.392Z,225.82
2023-01-13T19:47:45.413Z,213.18
2023-01-13T19:50:12.642Z,219.82
2023-01-13T19:52:39.494Z,233.18
2023-01-13T19:55:06.722Z,214.63
2023-01-13T19:57:33.449Z,223.55
2023-01-13T20:00:00.285Z,228.13
2023-01-13T20:02:31.559Z,203.57
2023-01-13T20:05:00.082Z,199.25
2023-01-13T20:07:28.638Z,228.10
2023-01-13T20:09:58.429Z,232.18
2023-01-13T20:12:25.818Z,218.90
2023-01-13T20:14:52.706Z,164.88
2023-01-13T20:17:30.182Z,140.43
2023-01-13T20:20:00.157Z,135.65
2023-01-13T20:22:26.969Z,140.00
2023-01-13T20:24:55.058Z,133.52
2023-01-13T20:27:23.820Z,122.50
2023-01-13T20:29:50.931Z,133.90
2023-01-13T20:32:17.657Z,144.52
2023-01-13T20:34:44.476Z,163.20
2023-01-13T20:37:11.233Z,149.23
2023-01-13T20:39:39.939Z,132.43
2023-01-13T20:42:25.234Z,131.95
2023-01-13T20:44:52.132Z,134.80
2023-01-13T20:47:18.966Z,182.95
2023-01-13T20:49:45.781Z,173.77
2023-01-13T20:52:12.534Z,172.90
2023-01-13T20:54:40.065Z,177.00
2023-01-13T20:57:09.616Z,148.57
2023-01-13T20:59:39.389Z,157.27
2023-01-13T21:02:07.782Z,144.13
2023-01-13T21:04:36.831Z,160.02
2023-01-13T21:07:03.657Z,159.65
2023-01-13T21:09:30.863Z,155.60
2023-01-13T21:12:16.164Z,133.73
2023-01-13T21:15:01.744Z,135.90
2023-01-13T21:17:47.158Z,125.75
2023-01-13T21:20:14.445Z,177.50
2023-01-13T21:22:47.907Z,222.73
2023-01-13T21:25:15.291Z,242.27
2023-01-13T21:27:44.071Z,273.23
2023-01-13T21:30:15.370Z,286.05
2023-01-13T21:32:42.797Z,286.38
2023-01-13T21:35:10.706Z,289.02
2023-01-13T21:37:38.156Z,263.27
2023-01-13T21:40:06.435Z,198.85
2023-01-13T21:42:51.707Z,222.07
2023-01-13T21:45:37.221Z,165.40
2023-01-13T21:48:04.278Z,186.55
2023-01-13T21:50:31.054Z,187.38
2023-01-13T21:52:58.222Z,204.00
2023-01-13T21:55:31.363Z,203.00
2023-01-13T21:58:11.679Z,228.20
2023-01-13T22:00:39.389Z,238.77
2023-01-13T22:03:06.670Z,187.07
2023-01-13T22:05:33.589Z,165.32
2023-01-13T22:08:00.651Z,149.18
2023-01-13T22:10:28.418Z,136.95
2023-01-13T22:12:55.952Z,118.22
2023-01-13T22:15:25.937Z,112.05
2023-01-13T22:17:53.662Z,96.30
2023-01-13T22:20:20.708Z,122.70
2023-01-13T22:22:47.621Z,129.65
2023-01-13T22:25:15.373Z,135.90
2023-01-13T22:27:44.271Z,134.55
2023-01-13T22:30:18.912Z,134.75
2023-01-13T22:32:46.135Z,155.45
2023-01-13T22:35:13.481Z,171.75
2023-01-13T22:37:40.429Z,178.82
2023-01-13T22:40:08.496Z,178.15
2023-01-13T22:42:39.081Z,167.07
2023-01-13T22:45:07.658Z,169.55
2023-01-13T22:47:34.551Z,159.23
2023-01-13T22:50:01.298Z,166.52
2023-01-13T22:52:28.590Z,156.63
2023-01-13T22:54:55.410Z,164.68
2023-01-13T22:57:23.931Z,171.57
2023-01-13T22:59:50.904Z,157.27
2023-01-13T23:02:17.681Z,148.77
2023-01-13T23:04:44.526Z,152.63
2023-01-13T23:07:11.473Z,144.60
2023-01-13T23:09:38.221Z,124.10
2023-01-13T23:12:05.362Z,175.77
2023-01-13T23:14:32.180Z,160.35
2023-01-13T23:16:59.023Z,167.63
2023-01-13T23:19:25.860Z,179.65
2023-01-13T23:21:52.732Z,119.97
2023-01-13T23:24:19.524Z,149.30
2023-01-13T23:26:46.307Z,142.85
2023-01-13T23:29:13.341Z,153.45
2023-01-13T23:31:40.299Z,142.25
2023-01-13T23:34:07.260Z,94.95
2023-01-13T23:36:36.976Z,118.38
2023-01-13T23:39:04.206Z,134.35
2023-01-13T23:41:31.092Z,123.70
2023-01-13T23:43:59.354Z,126.75
2023-01-13T23:46:26.864Z,125.63
2023-01-13T23:48:55.393Z,109.07
2023-01-13T23:51:22.529Z,116.20
2023-01-13T23:53:49.986Z,134.73
2023-01-13T23:56:21.966Z,131.70
2023-01-13T23:58:49.185Z,132.45
